sensor_id;sensor_type;location;lat;lon;timestamp;pressure;altitude;pressure_sealevel;temperature;humidity
9525;BME280;15940;48.734;9.112;2023-05-25T00:02:24;96912.38;;;9.64;67.36
9525;BME280;15940;48.734;9.112;2023-05-25T00:04:51;96905.63;;;9.74;67.04
9525;BME280;15940;48.734;9.112;2023-05-25T00:07:18;96902.66;;;9.72;65.92
9525;BME280;15940;48.734;9.112;2023-05-25T00:09:45;96904.84;;;9.68;66.48
9525;BME280;15940;48.734;9.112;2023-05-25T00:12:12;96899.00;;;9.75;66.97
9525;BME280;15940;48.734;9.112;2023-05-25T00:14:40;96910.69;;;9.66;67.29
9525;BME280;15940;48.734;9.112;2023-05-25T00:17:08;96896.41;;;9.66;67.56
9525;BME280;15940;48.734;9.112;2023-05-25T00:19:36;96907.34;;;9.57;68.19
9525;BME280;15940;48.734;9.112;2023-05-25T00:22:07;96913.09;;;9.44;67.78
9525;BME280;15940;48.734;9.112;2023-05-25T00:24:35;96913.88;;;9.65;68.16
9525;BME280;15940;48.734;9.112;2023-05-25T00:27:02;96908.78;;;9.52;67.56
9525;BME280;15940;48.734;9.112;2023-05-25T00:29:29;96909.00;;;9.49;69.37
9525;BME280;15940;48.734;9.112;2023-05-25T00:31:56;96898.72;;;9.53;68.47
9525;BME280;15940;48.734;9.112;2023-05-25T00:34:24;96903.16;;;9.56;68.08
9525;BME280;15940;48.734;9.112;2023-05-25T00:36:52;96896.72;;;9.68;67.97
9525;BME280;15940;48.734;9.112;2023-05-25T00:39:19;96905.44;;;9.78;67.03
9525;BME280;15940;48.734;9.112;2023-05-25T00:41:47;96902.28;;;9.79;68.48
9525;BME280;15940;48.734;9.112;2023-05-25T00:44:15;96897.59;;;9.80;67.93
9525;BME280;15940;48.734;9.112;2023-05-25T00:46:48;96893.81;;;9.71;68.28
9525;BME280;15940;48.734;9.112;2023-05-25T00:49:18;96889.28;;;9.83;68.22
9525;BME280;15940;48.734;9.112;2023-05-25T00:51:47;96898.81;;;9.79;67.93
9525;BME280;15940;48.734;9.112;2023-05-25T00:54:14;96894.50;;;9.87;67.61
9525;BME280;15940;48.734;9.112;2023-05-25T00:56:45;96892.06;;;9.68;66.72
9525;BME280;15940;48.734;9.112;2023-05-25T00:59:18;96887.78;;;9.62;67.10
9525;BME280;15940;48.734;9.112;2023-05-25T01:01:51;96892.06;;;9.68;67.71
9525;BME280;15940;48.734;9.112;2023-05-25T01:04:20;96885.16;;;9.67;68.50
9525;BME280;15940;48.734;9.112;2023-05-25T01:06:50;96892.22;;;9.65;68.24
9525;BME280;15940;48.734;9.112;2023-05-25T01:09:18;96894.59;;;9.57;68.42
9525;BME280;15940;48.734;9.112;2023-05-25T01:11:49;96889.81;;;9.67;68.73
9525;BME280;15940;48.734;9.112;2023-05-25T01:14:19;96901.22;;;9.56;68.65
9525;BME280;15940;48.734;9.112;2023-05-25T01:16:47;96894.13;;;9.59;68.35
9525;BME280;15940;48.734;9.112;2023-05-25T01:19:14;96882.22;;;9.51;69.06
9525;BME280;15940;48.734;9.112;2023-05-25T01:21:46;96892.94;;;9.45;68.99
9525;BME280;15940;48.734;9.112;2023-05-25T01:24:21;96883.06;;;9.42;70.59
9525;BME280;15940;48.734;9.112;2023-05-25T01:26:57;96878.72;;;9.30;69.34
9525;BME280;15940;48.734;9.112;2023-05-25T01:29:27;96880.22;;;9.31;70.32
9525;BME280;15940;48.734;9.112;2023-05-25T01:31:57;96880.50;;;9.18;70.39
9525;BME280;15940;48.734;9.112;2023-05-25T01:34:25;96886.31;;;9.11;70.55
9525;BME280;15940;48.734;9.112;2023-05-25T01:36:53;96897.31;;;8.93;69.77
9525;BME280;15940;48.734;9.112;2023-05-25T01:39:21;96885.56;;;8.81;69.93
9525;BME280;15940;48.734;9.112;2023-05-25T01:41:48;96895.25;;;8.87;71.56
9525;BME280;15940;48.734;9.112;2023-05-25T01:44:15;96891.34;;;8.88;69.92
9525;BME280;15940;48.734;9.112;2023-05-25T01:46:42;96892.94;;;8.95;70.20
9525;BME280;15940;48.734;9.112;2023-05-25T01:49:18;96899.28;;;8.92;70.36
9525;BME280;15940;48.734;9.112;2023-05-25T01:51:57;96901.50;;;8.79;70.31
9525;BME280;15940;48.734;9.112;2023-05-25T01:54:35;96898.06;;;8.64;70.56
9525;BME280;15940;48.734;9.112;2023-05-25T01:57:06;96901.41;;;8.73;71.66
9525;BME280;15940;48.734;9.112;2023-05-25T01:59:36;96903.19;;;8.76;71.23
9525;BME280;15940;48.734;9.112;2023-05-25T02:02:04;96899.19;;;8.72;72.12
9525;BME280;15940;48.734;9.112;2023-05-25T02:04:33;96887.91;;;8.58;71.32
9525;BME280;15940;48.734;9.112;2023-05-25T02:07:02;96889.84;;;8.58;71.17
9525;BME280;15940;48.734;9.112;2023-05-25T02:09:29;96895.53;;;8.60;72.96
9525;BME280;15940;48.734;9.112;2023-05-25T02:11:56;96890.69;;;8.49;72.06
9525;BME280;15940;48.734;9.112;2023-05-25T02:14:23;96890.31;;;8.56;72.16
9525;BME280;15940;48.734;9.112;2023-05-25T02:16:50;96883.69;;;8.43;72.66
9525;BME280;15940;48.734;9.112;2023-05-25T02:19:18;96872.38;;;8.29;71.73
9525;BME280;15940;48.734;9.112;2023-05-25T02:21:45;96872.47;;;8.20;71.80
9525;BME280;15940;48.734;9.112;2023-05-25T02:24:13;96881.22;;;8.15;72.19
9525;BME280;15940;48.734;9.112;2023-05-25T02:26:40;96878.38;;;8.10;72.60
9525;BME280;15940;48.734;9.112;2023-05-25T02:29:07;96873.19;;;8.21;73.81
9525;BME280;15940;48.734;9.112;2023-05-25T02:31:33;96875.81;;;8.30;73.20
9525;BME280;15940;48.734;9.112;2023-05-25T02:34:00;96872.34;;;8.15;72.17
9525;BME280;15940;48.734;9.112;2023-05-25T02:36:27;96863.41;;;8.09;72.06
9525;BME280;15940;48.734;9.112;2023-05-25T02:38:54;96866.19;;;7.99;72.02
9525;BME280;15940;48.734;9.112;2023-05-25T02:41:23;96861.59;;;7.91;72.96
9525;BME280;15940;48.734;9.112;2023-05-25T02:43:51;96857.50;;;7.95;74.02
9525;BME280;15940;48.734;9.112;2023-05-25T02:46:18;96868.41;;;8.01;74.47
9525;BME280;15940;48.734;9.112;2023-05-25T02:48:46;96863.25;;;8.27;73.85
9525;BME280;15940;48.734;9.112;2023-05-25T02:51:13;96864.09;;;8.33;73.33
9525;BME280;15940;48.734;9.112;2023-05-25T02:53:40;96869.75;;;8.44;72.93
9525;BME280;15940;48.734;9.112;2023-05-25T02:56:07;96877.75;;;8.53;72.94
9525;BME280;15940;48.734;9.112;2023-05-25T02:58:36;96875.91;;;8.74;72.00
9525;BME280;15940;48.734;9.112;2023-05-25T03:01:03;96888.00;;;8.79;72.01
9525;BME280;15940;48.734;9.112;2023-05-25T03:03:30;96878.59;;;8.74;73.15
9525;BME280;15940;48.734;9.112;2023-05-25T03:05:57;96891.09;;;8.72;72.64
9525;BME280;15940;48.734;9.112;2023-05-25T03:08:24;96888.09;;;8.55;72.20
9525;BME280;15940;48.734;9.112;2023-05-25T03:10:51;96885.34;;;8.40;72.71
9525;BME280;15940;48.734;9.112;2023-05-25T03:13:18;96877.84;;;8.20;72.18
9525;BME280;15940;48.734;9.112;2023-05-25T03:15:46;96884.19;;;8.17;73.90
9525;BME280;15940;48.734;9.112;2023-05-25T03:18:13;96874.00;;;8.12;74.78
9525;BME280;15940;48.734;9.112;2023-05-25T03:20:40;96871.31;;;8.12;74.26
9525;BME280;15940;48.734;9.112;2023-05-25T03:23:08;96885.75;;;8.24;75.14
9525;BME280;15940;48.734;9.112;2023-05-25T03:25:35;96882.94;;;8.42;74.83
9525;BME280;15940;48.734;9.112;2023-05-25T03:28:02;96887.03;;;8.38;72.96
9525;BME280;15940;48.734;9.112;2023-05-25T03:30:29;96894.91;;;8.26;74.43
9525;BME280;15940;48.734;9.112;2023-05-25T03:32:58;96897.13;;;8.28;73.93
9525;BME280;15940;48.734;9.112;2023-05-25T03:35:25;96887.81;;;8.29;74.71
9525;BME280;15940;48.734;9.112;2023-05-25T03:37:51;96889.81;;;8.43;74.24
9525;BME280;15940;48.734;9.112;2023-05-25T03:40:19;96887.25;;;8.49;74.20
9525;BME280;15940;48.734;9.112;2023-05-25T03:42:46;96885.66;;;8.57;72.70
9525;BME280;15940;48.734;9.112;2023-05-25T03:45:12;96884.34;;;8.52;73.07
9525;BME280;15940;48.734;9.112;2023-05-25T03:47:39;96887.78;;;8.38;73.22
9525;BME280;15940;48.734;9.112;2023-05-25T03:50:09;96885.56;;;8.37;73.92
9525;BME280;15940;48.734;9.112;2023-05-25T03:52:36;96892.25;;;8.41;73.72
9525;BME280;15940;48.734;9.112;2023-05-25T03:55:04;96889.09;;;8.57;73.52
9525;BME280;15940;48.734;9.112;2023-05-25T03:57:31;96896.00;;;8.58;71.94
9525;BME280;15940;48.734;9.112;2023-05-25T03:59:58;96903.19;;;8.76;72.28
9525;BME280;15940;48.734;9.112;2023-05-25T04:02:25;96903.38;;;8.73;72.86
9525;BME280;15940;48.734;9.112;2023-05-25T04:04:52;96906.81;;;8.73;72.05
9525;BME280;15940;48.734;9.112;2023-05-25T04:07:22;96916.84;;;8.58;73.71
9525;BME280;15940;48.734;9.112;2023-05-25T04:09:49;96907.63;;;8.50;73.58
9525;BME280;15940;48.734;9.112;2023-05-25T04:12:16;96920.78;;;8.33;72.45
9525;BME280;15940;48.734;9.112;2023-05-25T04:14:43;96916.09;;;8.19;73.01
9525;BME280;15940;48.734;9.112;2023-05-25T04:17:10;96911.50;;;8.10;73.65
9525;BME280;15940;48.734;9.112;2023-05-25T04:19:37;96910.75;;;8.10;74.14
9525;BME280;15940;48.734;9.112;2023-05-25T04:22:04;96922.50;;;8.21;75.57
9525;BME280;15940;48.734;9.112;2023-05-25T04:24:32;96914.34;;;8.30;75.37
9525;BME280;15940;48.734;9.112;2023-05-25T04:26:59;96907.63;;;8.50;75.19
9525;BME280;15940;48.734;9.112;2023-05-25T04:29:27;96903.47;;;8.64;74.60
9525;BME280;15940;48.734;9.112;2023-05-25T04:31:54;96912.84;;;8.68;74.80
9525;BME280;15940;48.734;9.112;2023-05-25T04:34:21;96904.56;;;8.86;73.16
9525;BME280;15940;48.734;9.112;2023-05-25T04:36:48;96906.81;;;8.88;71.60
9525;BME280;15940;48.734;9.112;2023-05-25T04:39:15;96909.31;;;8.77;72.87
9525;BME280;15940;48.734;9.112;2023-05-25T04:41:45;96905.84;;;8.62;73.47
9525;BME280;15940;48.734;9.112;2023-05-25T04:44:13;96914.25;;;8.64;73.42
9525;BME280;15940;48.734;9.112;2023-05-25T04:46:39;96909.31;;;8.62;73.51
9525;BME280;15940;48.734;9.112;2023-05-25T04:49:06;96918.19;;;8.63;74.10
9525;BME280;15940;48.734;9.112;2023-05-25T04:51:34;96925.41;;;8.71;73.78
9525;BME280;15940;48.734;9.112;2023-05-25T04:54:01;96921.03;;;8.59;73.37
9525;BME280;15940;48.734;9.112;2023-05-25T04:56:28;96924.69;;;8.56;73.19
9525;BME280;15940;48.734;9.112;2023-05-25T04:58:57;96917.22;;;8.51;73.20
9525;BME280;15940;48.734;9.112;2023-05-25T05:01:24;96924.84;;;8.52;73.42
9525;BME280;15940;48.734;9.112;2023-05-25T05:03:51;96922.44;;;8.54;73.68
9525;BME280;15940;48.734;9.112;2023-05-25T05:06:17;96928.13;;;8.56;73.81
9525;BME280;15940;48.734;9.112;2023-05-25T05:08:44;96928.88;;;8.57;73.10
9525;BME280;15940;48.734;9.112;2023-05-25T05:11:11;96919.81;;;8.60;73.37
9525;BME280;15940;48.734;9.112;2023-05-25T05:13:38;96927.03;;;8.63;74.05
9525;BME280;15940;48.734;9.112;2023-05-25T05:16:07;96921.63;;;8.63;73.27
9525;BME280;15940;48.734;9.112;2023-05-25T05:18:34;96928.03;;;8.66;73.51
9525;BME280;15940;48.734;9.112;2023-05-25T05:21:01;96935.19;;;8.69;74.21
9525;BME280;15940;48.734;9.112;2023-05-25T05:23:28;96944.91;;;8.75;73.54
9525;BME280;15940;48.734;9.112;2023-05-25T05:25:54;96945.38;;;8.74;73.57
9525;BME280;15940;48.734;9.112;2023-05-25T05:28:21;96949.47;;;8.84;73.36
9525;BME280;15940;48.734;9.112;2023-05-25T05:30:51;96954.88;;;8.84;72.90
9525;BME280;15940;48.734;9.112;2023-05-25T05:33:20;96955.63;;;8.84;73.37
9525;BME280;15940;48.734;9.112;2023-05-25T05:35:48;96962.78;;;8.87;73.61
9525;BME280;15940;48.734;9.112;2023-05-25T05:38:15;96968.09;;;8.97;73.45
9525;BME280;15940;48.734;9.112;2023-05-25T05:40:42;96968.97;;;9.03;72.63
9525;BME280;15940;48.734;9.112;2023-05-25T05:43:11;96965.13;;;9.09;73.39
9525;BME280;15940;48.734;9.112;2023-05-25T05:45:38;96959.94;;;9.21;73.50
9525;BME280;15940;48.734;9.112;2023-05-25T05:48:06;96966.72;;;9.31;72.92
9525;BME280;15940;48.734;9.112;2023-05-25T05:50:35;96968.00;;;9.35;72.78
9525;BME280;15940;48.734;9.112;2023-05-25T05:53:03;96972.28;;;9.42;72.39
9525;BME280;15940;48.734;9.112;2023-05-25T05:55:30;96973.88;;;9.49;71.80
9525;BME280;15940;48.734;9.112;2023-05-25T05:57:57;96977.13;;;9.53;72.07
9525;BME280;15940;48.734;9.112;2023-05-25T06:00:24;96981.88;;;9.58;72.32
9525;BME280;15940;48.734;9.112;2023-05-25T06:02:51;96986.34;;;9.61;72.03
9525;BME280;15940;48.734;9.112;2023-05-25T06:05:18;96991.81;;;9.66;72.03
9525;BME280;15940;48.734;9.112;2023-05-25T06:07:47;96989.00;;;9.76;72.16
9525;BME280;15940;48.734;9.112;2023-05-25T06:10:14;96991.91;;;9.87;72.34
9525;BME280;15940;48.734;9.112;2023-05-25T06:12:41;96995.03;;;10.00;72.44
9525;BME280;15940;48.734;9.112;2023-05-25T06:15:08;96994.25;;;10.14;72.20
9525;BME280;15940;48.734;9.112;2023-05-25T06:17:36;96987.16;;;10.37;71.36
9525;BME280;15940;48.734;9.112;2023-05-25T06:20:03;96993.59;;;10.60;71.49
9525;BME280;15940;48.734;9.112;2023-05-25T06:22:31;96991.81;;;10.77;70.42
9525;BME280;15940;48.734;9.112;2023-05-25T06:24:59;96992.06;;;10.79;68.86
9525;BME280;15940;48.734;9.112;2023-05-25T06:27:26;96989.50;;;10.91;69.88
9525;BME280;15940;48.734;9.112;2023-05-25T06:29:53;96998.81;;;10.90;69.28
9525;BME280;15940;48.734;9.112;2023-05-25T06:32:20;97000.13;;;10.94;69.71
9525;BME280;15940;48.734;9.112;2023-05-25T06:34:47;96997.78;;;11.07;69.42
9525;BME280;15940;48.734;9.112;2023-05-25T06:37:14;96998.31;;;11.11;68.73
9525;BME280;15940;48.734;9.112;2023-05-25T06:39:41;96990.13;;;11.32;68.58
9525;BME280;15940;48.734;9.112;2023-05-25T06:42:10;96991.09;;;11.60;68.50
9525;BME280;15940;48.734;9.112;2023-05-25T06:44:37;96993.19;;;11.77;65.86
9525;BME280;15940;48.734;9.112;2023-05-25T06:47:04;97003.25;;;12.08;66.17
9525;BME280;15940;48.734;9.112;2023-05-25T06:49:31;96997.94;;;12.30;65.21
9525;BME280;15940;48.734;9.112;2023-05-25T06:51:58;97001.50;;;12.53;65.94
9525;BME280;15940;48.734;9.112;2023-05-25T06:54:25;96994.16;;;12.70;64.37
9525;BME280;15940;48.734;9.112;2023-05-25T06:56:52;96989.22;;;12.74;64.12
9525;BME280;15940;48.734;9.112;2023-05-25T06:59:21;96996.88;;;12.76;64.61
9525;BME280;15940;48.734;9.112;2023-05-25T07:01:48;97003.84;;;12.82;65.06
9525;BME280;15940;48.734;9.112;2023-05-25T07:04:14;97010.28;;;12.91;64.72
9525;BME280;15940;48.734;9.112;2023-05-25T07:06:41;97016.69;;;12.87;65.46
9525;BME280;15940;48.734;9.112;2023-05-25T07:09:09;97014.16;;;12.67;64.24
9525;BME280;15940;48.734;9.112;2023-05-25T07:11:36;97017.34;;;12.60;65.30
9525;BME280;15940;48.734;9.112;2023-05-25T07:14:02;97024.97;;;12.56;65.61
9525;BME280;15940;48.734;9.112;2023-05-25T07:16:31;97022.31;;;12.62;65.66
9525;BME280;15940;48.734;9.112;2023-05-25T07:18:58;97028.16;;;12.43;65.79
9525;BME280;15940;48.734;9.112;2023-05-25T07:21:25;97026.38;;;12.35;66.06
9525;BME280;15940;48.734;9.112;2023-05-25T07:23:52;97025.53;;;12.17;67.14
9525;BME280;15940;48.734;9.112;2023-05-25T07:26:19;97036.59;;;12.08;66.41
9525;BME280;15940;48.734;9.112;2023-05-25T07:28:47;97032.91;;;12.11;67.81
9525;BME280;15940;48.734;9.112;2023-05-25T07:31:15;97037.63;;;12.16;68.09
9525;BME280;15940;48.734;9.112;2023-05-25T07:33:43;97030.00;;;12.20;67.54
9525;BME280;15940;48.734;9.112;2023-05-25T07:36:10;97024.88;;;12.34;67.90
9525;BME280;15940;48.734;9.112;2023-05-25T07:38:37;97030.88;;;12.49;68.12
9525;BME280;15940;48.734;9.112;2023-05-25T07:41:04;97030.47;;;12.67;66.95
9525;BME280;15940;48.734;9.112;2023-05-25T07:43:31;97039.63;;;12.75;67.90
9525;BME280;15940;48.734;9.112;2023-05-25T07:45:59;97038.19;;;12.80;68.37
9525;BME280;15940;48.734;9.112;2023-05-25T07:48:27;97033.22;;;12.78;66.33
9525;BME280;15940;48.734;9.112;2023-05-25T07:50:55;97033.72;;;12.77;66.95
9525;BME280;15940;48.734;9.112;2023-05-25T07:53:22;97040.16;;;12.79;66.48
9525;BME280;15940;48.734;9.112;2023-05-25T07:55:49;97037.47;;;12.96;66.43
9525;BME280;15940;48.734;9.112;2023-05-25T07:58:16;97037.09;;;13.31;67.29
9525;BME280;15940;48.734;9.112;2023-05-25T08:00:43;97031.16;;;13.83;66.95
9525;BME280;15940;48.734;9.112;2023-05-25T08:03:10;97035.56;;;14.31;65.13
9525;BME280;15940;48.734;9.112;2023-05-25T08:05:36;97035.47;;;14.70;62.11
9525;BME280;15940;48.734;9.112;2023-05-25T08:08:05;97034.53;;;15.03;62.51
9525;BME280;15940;48.734;9.112;2023-05-25T08:10:32;97026.84;;;15.43;62.35
9525;BME280;15940;48.734;9.112;2023-05-25T08:12:59;97032.13;;;15.71;61.24
9525;BME280;15940;48.734;9.112;2023-05-25T08:15:26;97030.47;;;15.92;61.87
9525;BME280;15940;48.734;9.112;2023-05-25T08:17:53;97038.81;;;16.00;58.92
9525;BME280;15940;48.734;9.112;2023-05-25T08:20:21;97027.41;;;16.02;59.82
9525;BME280;15940;48.734;9.112;2023-05-25T08:22:49;97032.75;;;16.13;59.47
9525;BME280;15940;48.734;9.112;2023-05-25T08:25:19;97036.56;;;16.28;61.04
9525;BME280;15940;48.734;9.112;2023-05-25T08:27:46;97033.47;;;16.38;59.26
9525;BME280;15940;48.734;9.112;2023-05-25T08:30:14;97038.19;;;16.62;60.20
9525;BME280;15940;48.734;9.112;2023-05-25T08:32:40;97041.66;;;16.87;60.15
9525;BME280;15940;48.734;9.112;2023-05-25T08:35:08;97035.78;;;16.77;56.76
9525;BME280;15940;48.734;9.112;2023-05-25T08:37:35;97041.44;;;16.84;57.90
9525;BME280;15940;48.734;9.112;2023-05-25T08:40:03;97053.94;;;16.99;57.48
9525;BME280;15940;48.734;9.112;2023-05-25T08:42:33;97050.38;;;17.23;59.54
9525;BME280;15940;48.734;9.112;2023-05-25T08:45:00;97048.25;;;17.34;59.18
9525;BME280;15940;48.734;9.112;2023-05-25T08:47:30;97058.97;;;17.32;56.04
9525;BME280;15940;48.734;9.112;2023-05-25T08:49:59;97041.34;;;17.47;58.01
9525;BME280;15940;48.734;9.112;2023-05-25T08:52:28;97048.72;;;17.52;56.11
9525;BME280;15940;48.734;9.112;2023-05-25T08:55:03;97053.16;;;17.55;59.07
9525;BME280;15940;48.734;9.112;2023-05-25T08:57:39;97052.44;;;17.54;56.43
9525;BME280;15940;48.734;9.112;2023-05-25T09:00:11;97043.63;;;17.42;56.96
9525;BME280;15940;48.734;9.112;2023-05-25T09:02:45;97041.38;;;17.28;56.71
9525;BME280;15940;48.734;9.112;2023-05-25T09:05:15;97040.59;;;17.46;57.42
9525;BME280;15940;48.734;9.112;2023-05-25T09:07:43;97048.22;;;17.85;58.22
9525;BME280;15940;48.734;9.112;2023-05-25T09:10:11;97051.66;;;18.05;56.62
9525;BME280;15940;48.734;9.112;2023-05-25T09:12:41;97056.00;;;18.26;56.77
9525;BME280;15940;48.734;9.112;2023-05-25T09:15:10;97057.28;;;18.39;57.53
9525;BME280;15940;48.734;9.112;2023-05-25T09:17:37;97052.53;;;18.66;53.99
9525;BME280;15940;48.734;9.112;2023-05-25T09:20:06;97049.78;;;18.79;53.10
9525;BME280;15940;48.734;9.112;2023-05-25T09:22:34;97059.31;;;18.78;55.68
9525;BME280;15940;48.734;9.112;2023-05-25T09:25:04;97056.97;;;18.95;56.74
9525;BME280;15940;48.734;9.112;2023-05-25T09:27:35;97060.94;;;19.07;54.61
9525;BME280;15940;48.734;9.112;2023-05-25T09:32:25;97064.06;;;18.77;52.81
9525;BME280;15940;48.734;9.112;2023-05-25T09:34:52;97054.44;;;18.58;55.92
9525;BME280;15940;48.734;9.112;2023-05-25T09:37:21;97061.22;;;18.70;54.17
9525;BME280;15940;48.734;9.112;2023-05-25T09:39:50;97063.28;;;18.64;55.70
9525;BME280;15940;48.734;9.112;2023-05-25T09:42:17;97060.34;;;18.62;55.50
9525;BME280;15940;48.734;9.112;2023-05-25T09:44:44;97058.53;;;18.51;55.02
9525;BME280;15940;48.734;9.112;2023-05-25T09:47:11;97063.50;;;18.39;58.70
9525;BME280;15940;48.734;9.112;2023-05-25T09:49:42;97067.56;;;18.06;55.44
9525;BME280;15940;48.734;9.112;2023-05-25T09:52:13;97070.22;;;17.80;56.44
9525;BME280;15940;48.734;9.112;2023-05-25T09:54:44;97062.03;;;17.61;57.54
9525;BME280;15940;48.734;9.112;2023-05-25T09:57:11;97065.25;;;17.46;58.68
9525;BME280;15940;48.734;9.112;2023-05-25T09:59:38;97058.53;;;17.28;59.25
9525;BME280;15940;48.734;9.112;2023-05-25T10:02:05;97068.44;;;17.31;59.65
9525;BME280;15940;48.734;9.112;2023-05-25T10:04:32;97058.50;;;17.47;60.51
9525;BME280;15940;48.734;9.112;2023-05-25T10:07:01;97064.53;;;17.78;57.62
9525;BME280;15940;48.734;9.112;2023-05-25T10:09:29;97065.97;;;17.97;57.68
9525;BME280;15940;48.734;9.112;2023-05-25T10:11:57;97072.00;;;18.09;58.10
9525;BME280;15940;48.734;9.112;2023-05-25T10:14:27;97069.97;;;18.10;58.26
9525;BME280;15940;48.734;9.112;2023-05-25T10:16:56;97076.38;;;18.58;57.88
9525;BME280;15940;48.734;9.112;2023-05-25T10:19:30;97071.59;;;19.11;58.54
9525;BME280;15940;48.734;9.112;2023-05-25T10:22:05;97073.25;;;19.27;55.55
9525;BME280;15940;48.734;9.112;2023-05-25T10:24:41;97073.34;;;19.22;57.39
9525;BME280;15940;48.734;9.112;2023-05-25T10:27:16;97073.91;;;19.20;57.57
9525;BME280;15940;48.734;9.112;2023-05-25T10:29:46;97066.53;;;19.15;55.31
9525;BME280;15940;48.734;9.112;2023-05-25T10:32:15;97074.81;;;18.89;55.01
9525;BME280;15940;48.734;9.112;2023-05-25T10:34:43;97066.13;;;18.98;57.66
9525;BME280;15940;48.734;9.112;2023-05-25T10:37:13;97065.41;;;18.71;53.16
9525;BME280;15940;48.734;9.112;2023-05-25T10:39:42;97067.22;;;18.68;56.48
9525;BME280;15940;48.734;9.112;2023-05-25T10:42:11;97056.72;;;18.93;57.86
9525;BME280;15940;48.734;9.112;2023-05-25T10:44:40;97056.34;;;19.23;55.39
9525;BME280;15940;48.734;9.112;2023-05-25T10:47:08;97059.72;;;19.29;54.89
9525;BME280;15940;48.734;9.112;2023-05-25T10:49:52;97064.38;;;19.21;53.11
9525;BME280;15940;48.734;9.112;2023-05-25T10:52:21;97071.63;;;19.45;54.30
9525;BME280;15940;48.734;9.112;2023-05-25T10:54:55;97071.28;;;19.49;56.57
9525;BME280;15940;48.734;9.112;2023-05-25T10:57:23;97074.91;;;19.44;53.67
9525;BME280;15940;48.734;9.112;2023-05-25T10:59:53;97074.31;;;19.24;53.79
9525;BME280;15940;48.734;9.112;2023-05-25T11:02:27;97058.84;;;19.00;56.13
9525;BME280;15940;48.734;9.112;2023-05-25T11:05:30;97073.63;;;18.97;55.32
9525;BME280;15940;48.734;9.112;2023-05-25T11:08:00;97073.44;;;18.95;57.01
9525;BME280;15940;48.734;9.112;2023-05-25T11:10:52;97068.59;;;18.88;54.32
9525;BME280;15940;48.734;9.112;2023-05-25T11:13:35;97073.53;;;18.90;55.00
9525;BME280;15940;48.734;9.112;2023-05-25T11:16:31;97062.44;;;18.82;57.87
9525;BME280;15940;48.734;9.112;2023-05-25T11:19:01;97070.69;;;18.95;57.34
9525;BME280;15940;48.734;9.112;2023-05-25T11:21:42;97067.47;;;19.04;54.91
9525;BME280;15940;48.734;9.112;2023-05-25T11:24:14;97066.13;;;18.98;56.04
9525;BME280;15940;48.734;9.112;2023-05-25T11:26:57;97064.34;;;18.87;55.88
9525;BME280;15940;48.734;9.112;2023-05-25T11:29:30;97060.22;;;18.94;57.31
9525;BME280;15940;48.734;9.112;2023-05-25T11:31:58;97063.16;;;19.09;57.02
9525;BME280;15940;48.734;9.112;2023-05-25T11:34:25;97060.44;;;19.30;57.41
9525;BME280;15940;48.734;9.112;2023-05-25T11:36:54;97058.81;;;19.82;55.84
9525;BME280;15940;48.734;9.112;2023-05-25T11:39:23;97066.78;;;19.93;54.95
9525;BME280;15940;48.734;9.112;2023-05-25T11:41:54;97067.03;;;19.82;52.63
9525;BME280;15940;48.734;9.112;2023-05-25T11:44:26;97058.72;;;19.74;55.22
9525;BME280;15940;48.734;9.112;2023-05-25T11:46:54;97059.28;;;19.73;55.50
9525;BME280;15940;48.734;9.112;2023-05-25T11:49:22;97056.19;;;19.76;56.14
9525;BME280;15940;48.734;9.112;2023-05-25T11:51:50;97062.81;;;19.81;55.02
9525;BME280;15940;48.734;9.112;2023-05-25T11:54:24;97056.72;;;19.75;54.79
9525;BME280;15940;48.734;9.112;2023-05-25T11:56:51;97060.75;;;19.74;54.94
9525;BME280;15940;48.734;9.112;2023-05-25T11:59:22;97063.28;;;19.72;53.59
9525;BME280;15940;48.734;9.112;2023-05-25T12:01:56;97066.16;;;19.66;55.00
9525;BME280;15940;48.734;9.112;2023-05-25T12:04:24;97065.63;;;19.67;53.93
9525;BME280;15940;48.734;9.112;2023-05-25T12:06:51;97051.81;;;19.60;54.00
9525;BME280;15940;48.734;9.112;2023-05-25T12:09:20;97057.22;;;19.52;54.09
9525;BME280;15940;48.734;9.112;2023-05-25T12:11:49;97063.56;;;19.47;56.62
9525;BME280;15940;48.734;9.112;2023-05-25T12:14:16;97067.84;;;19.35;54.02
9525;BME280;15940;48.734;9.112;2023-05-25T12:16:44;97057.78;;;19.37;55.52
9525;BME280;15940;48.734;9.112;2023-05-25T12:19:11;97062.84;;;19.47;55.79
9525;BME280;15940;48.734;9.112;2023-05-25T12:21:40;97057.72;;;19.64;55.84
9525;BME280;15940;48.734;9.112;2023-05-25T12:24:07;97056.72;;;19.75;54.77
9525;BME280;15940;48.734;9.112;2023-05-25T12:26:47;97052.88;;;19.78;54.20
9525;BME280;15940;48.734;9.112;2023-05-25T12:29:17;97051.22;;;19.95;57.05
9525;BME280;15940;48.734;9.112;2023-05-25T12:31:44;97050.53;;;20.03;54.71
9525;BME280;15940;48.734;9.112;2023-05-25T12:34:13;97056.22;;;20.05;53.58
9525;BME280;15940;48.734;9.112;2023-05-25T12:36:44;97049.81;;;20.02;55.90
9525;BME280;15940;48.734;9.112;2023-05-25T12:39:14;97045.97;;;20.05;54.32
9525;BME280;15940;48.734;9.112;2023-05-25T12:41:49;97045.91;;;20.18;55.21
9525;BME280;15940;48.734;9.112;2023-05-25T12:44:22;97048.38;;;20.58;56.74
9525;BME280;15940;48.734;9.112;2023-05-25T12:46:51;97062.41;;;20.75;56.26
9525;BME280;15940;48.734;9.112;2023-05-25T12:49:24;97049.94;;;20.82;53.69
9525;BME280;15940;48.734;9.112;2023-05-25T12:51:51;97052.22;;;20.63;51.31
9525;BME280;15940;48.734;9.112;2023-05-25T12:54:34;97051.53;;;20.41;52.91
9525;BME280;15940;48.734;9.112;2023-05-25T12:57:03;97056.38;;;20.27;52.53
9525;BME280;15940;48.734;9.112;2023-05-25T12:59:31;97046.16;;;20.36;54.40
9525;BME280;15940;48.734;9.112;2023-05-25T13:01:59;97054.19;;;20.47;53.92
9525;BME280;15940;48.734;9.112;2023-05-25T13:04:26;97043.69;;;20.45;52.67
9525;BME280;15940;48.734;9.112;2023-05-25T13:06:53;97042.81;;;20.50;54.22
9525;BME280;15940;48.734;9.112;2023-05-25T13:09:23;97050.34;;;20.50;54.36
9525;BME280;15940;48.734;9.112;2023-05-25T13:11:52;97052.28;;;20.42;53.84
9525;BME280;15940;48.734;9.112;2023-05-25T13:14:22;97048.06;;;20.69;55.07
9525;BME280;15940;48.734;9.112;2023-05-25T13:16:49;97052.19;;;20.91;55.25
9525;BME280;15940;48.734;9.112;2023-05-25T13:19:17;97049.06;;;20.87;53.79
9525;BME280;15940;48.734;9.112;2023-05-25T13:21:44;97043.19;;;20.91;53.16
9525;BME280;15940;48.734;9.112;2023-05-25T13:24:13;97038.69;;;20.72;50.92
9525;BME280;15940;48.734;9.112;2023-05-25T13:26:41;97040.13;;;20.58;51.59